createdAt,value
2023-03-10T00:00:54.142Z,10.80
2023-03-10T00:03:23.558Z,10.76
2023-03-10T00:05:55.727Z,10.84
2023-03-10T00:08:27.140Z,10.75
2023-03-10T00:11:06.887Z,10.59
2023-03-10T00:13:44.175Z,10.66
2023-03-10T00:16:20.210Z,10.47
2023-03-10T00:18:51.127Z,10.74
2023-03-10T00:21:22.382Z,10.76
2023-03-10T00:23:53.144Z,10.81
2023-03-10T00:26:30.746Z,10.81
2023-03-10T00:29:04.931Z,10.74
2023-03-10T00:31:43.285Z,10.67
2023-03-10T00:34:12.653Z,10.77
2023-03-10T00:36:41.936Z,10.87
2023-03-10T00:39:11.972Z,10.66
2023-03-10T00:41:55.380Z,10.69
2023-03-10T00:44:25.137Z,10.49
2023-03-10T00:46:54.646Z,10.72
2023-03-10T00:49:26.298Z,10.69
2023-03-10T00:52:00.266Z,10.49
2023-03-10T00:54:28.583Z,10.42
2023-03-10T00:57:14.986Z,10.54
2023-03-10T00:59:51.183Z,10.49
2023-03-10T01:02:22.128Z,10.38
2023-03-10T01:04:50.852Z,10.42
2023-03-10T01:07:28.339Z,10.41
2023-03-10T01:09:59.288Z,10.39
2023-03-10T01:12:35.951Z,10.37
2023-03-10T01:15:13.716Z,10.24
2023-03-10T01:17:44.343Z,10.18
2023-03-10T01:20:25.111Z,10.00
2023-03-10T01:23:01.573Z,10.16
2023-03-10T01:25:36.680Z,10.30
2023-03-10T01:28:11.519Z,10.22
2023-03-10T01:30:42.354Z,9.79
2023-03-10T01:33:14.015Z,10.05
2023-03-10T01:35:45.027Z,9.88
2023-03-10T01:38:22.136Z,9.87
2023-03-10T01:40:51.570Z,9.82
2023-03-10T01:43:46.484Z,9.94
2023-03-10T01:46:44.483Z,9.84
2023-03-10T01:49:41.891Z,9.77
2023-03-10T01:52:16.376Z,9.43
2023-03-10T01:54:52.771Z,9.22
2023-03-10T01:57:26.013Z,9.50
2023-03-10T02:00:00.941Z,9.61
2023-03-10T02:02:56.677Z,9.58
2023-03-10T02:05:26.240Z,9.34
2023-03-10T02:07:56.884Z,9.57
2023-03-10T02:10:28.581Z,9.50
2023-03-10T02:13:06.476Z,9.48
2023-03-10T02:15:43.014Z,9.35
2023-03-10T02:18:14.573Z,9.17
2023-03-10T02:20:51.360Z,9.37
2023-03-10T02:23:26.796Z,9.41
2023-03-10T02:25:58.822Z,9.29
2023-03-10T02:28:35.690Z,9.26
2023-03-10T02:31:07.648Z,9.10
2023-03-10T02:33:39.512Z,9.11
2023-03-10T02:36:17.607Z,9.06
2023-03-10T02:38:50.730Z,9.22
2023-03-10T02:41:22.921Z,9.18
2023-03-10T02:44:10.468Z,8.98
2023-03-10T02:46:39.905Z,8.74
2023-03-10T02:49:19.897Z,8.96
2023-03-10T02:51:50.787Z,9.15
2023-03-10T02:54:25.424Z,8.93
2023-03-10T02:57:07.516Z,8.80
2023-03-10T02:59:58.221Z,8.88
2023-03-10T03:02:29.659Z,8.64
2023-03-10T03:05:00.463Z,8.94
2023-03-10T03:07:32.183Z,8.96
2023-03-10T03:10:07.153Z,8.89
2023-03-10T03:12:37.912Z,8.90
2023-03-10T03:15:32.909Z,8.82
2023-03-10T03:18:02.386Z,8.81
2023-03-10T03:20:38.209Z,8.75
2023-03-10T03:23:10.256Z,8.48
2023-03-10T03:25:41.715Z,8.60
2023-03-10T03:28:14.424Z,8.75
2023-03-10T03:30:47.534Z,8.54
2023-03-10T03:33:20.893Z,8.50
2023-03-10T03:35:53.432Z,8.32
2023-03-10T03:38:30.099Z,8.09
2023-03-10T03:41:01.536Z,8.51
2023-03-10T03:43:34.106Z,8.27
2023-03-10T03:46:05.770Z,8.24
2023-03-10T03:48:35.460Z,8.55
2023-03-10T03:51:08.170Z,8.54
2023-03-10T03:53:47.801Z,8.43
2023-03-10T03:56:18.089Z,8.38
2023-03-10T03:58:50.688Z,8.42
2023-03-10T04:01:36.632Z,8.40
2023-03-10T04:04:15.245Z,8.31
2023-03-10T04:06:56.383Z,8.23
2023-03-10T04:09:25.028Z,8.14
2023-03-10T04:11:56.842Z,8.14
2023-03-10T04:14:26.916Z,8.27
2023-03-10T04:17:04.715Z,8.31
2023-03-10T04:19:33.860Z,8.41
2023-03-10T04:22:11.732Z,8.38
2023-03-10T04:24:44.407Z,8.17
2023-03-10T04:27:21.299Z,8.41
2023-03-10T04:29:53.737Z,8.56
2023-03-10T04:32:31.098Z,8.37
2023-03-10T04:35:03.367Z,8.45
2023-03-10T04:37:31.507Z,8.31
2023-03-10T04:40:03.507Z,8.43
2023-03-10T04:42:31.901Z,8.32
2023-03-10T04:45:03.313Z,8.28
2023-03-10T04:47:35.526Z,8.35
2023-03-10T04:50:05.424Z,8.09
2023-03-10T04:52:36.458Z,7.96
2023-03-10T04:55:16.084Z,8.24
2023-03-10T04:57:47.915Z,8.10
2023-03-10T05:00:29.157Z,7.98
2023-03-10T05:03:06.022Z,7.95
2023-03-10T05:05:38.427Z,8.13
2023-03-10T05:08:07.529Z,8.10
2023-03-10T05:10:39.647Z,7.98
2023-03-10T05:13:12.220Z,8.16
2023-03-10T05:15:44.143Z,7.94
2023-03-10T05:18:19.748Z,7.84
2023-03-10T05:21:01.208Z,7.88
2023-03-10T05:23:35.018Z,7.93
2023-03-10T05:26:07.475Z,7.90
2023-03-10T05:28:37.184Z,7.95
2023-03-10T05:31:26.494Z,7.81
2023-03-10T05:34:04.868Z,7.80
2023-03-10T05:36:33.462Z,7.80
2023-03-10T05:39:13.602Z,7.80
2023-03-10T05:41:49.574Z,7.89
2023-03-10T05:44:22.051Z,7.88
2023-03-10T05:46:50.971Z,7.81
2023-03-10T05:49:23.303Z,7.95
2023-03-10T05:51:56.448Z,8.01
2023-03-10T05:54:27.429Z,7.82
2023-03-10T05:56:59.082Z,7.77
2023-03-10T05:59:33.268Z,8.11
2023-03-10T06:02:05.149Z,8.31
2023-03-10T06:04:39.940Z,8.29
2023-03-10T06:07:23.065Z,7.99
2023-03-10T06:10:02.704Z,8.17
2023-03-10T06:12:36.144Z,8.12
2023-03-10T06:15:07.286Z,7.94
2023-03-10T06:17:40.175Z,8.31
2023-03-10T06:20:17.549Z,7.81
2023-03-10T06:22:49.101Z,8.26
2023-03-10T06:25:20.545Z,8.27
2023-03-10T06:27:50.105Z,8.17
2023-03-10T06:30:33.323Z,8.05
2023-03-10T06:33:10.314Z,8.43
2023-03-10T06:35:44.400Z,8.18
2023-03-10T06:38:20.529Z,8.16
2023-03-10T06:40:51.356Z,8.37
2023-03-10T06:43:21.101Z,8.53
2023-03-10T06:45:56.001Z,8.49
2023-03-10T06:48:26.586Z,8.50
2023-03-10T06:50:57.090Z,8.25
2023-03-10T06:53:27.095Z,8.43
2023-03-10T06:56:00.726Z,8.59
2023-03-10T06:58:31.521Z,8.70
2023-03-10T07:01:13.998Z,8.86
2023-03-10T07:03:46.450Z,8.77
2023-03-10T07:06:29.778Z,8.74
2023-03-10T07:09:01.360Z,8.89
2023-03-10T07:11:29.511Z,8.82
2023-03-10T07:14:05.631Z,8.92
2023-03-10T07:16:44.594Z,9.15
2023-03-10T07:19:13.050Z,9.13
2023-03-10T07:21:49.758Z,9.22
2023-03-10T07:24:22.040Z,9.25
2023-03-10T07:26:50.555Z,9.35
2023-03-10T07:29:21.163Z,9.27
2023-03-10T07:31:52.710Z,9.42
2023-03-10T07:34:26.362Z,9.42
2023-03-10T07:37:17.686Z,9.26
2023-03-10T07:39:48.632Z,9.54
2023-03-10T07:42:18.643Z,9.75
2023-03-10T07:44:48.459Z,9.79
2023-03-10T07:47:20.521Z,9.77
2023-03-10T07:50:01.616Z,9.66
2023-03-10T07:52:40.871Z,9.85
2023-03-10T07:55:09.924Z,9.89
2023-03-10T07:57:39.157Z,9.97
2023-03-10T08:00:10.512Z,10.02
2023-03-10T08:02:44.120Z,10.20
2023-03-10T08:05:17.051Z,10.16
2023-03-10T08:07:58.861Z,10.07
2023-03-10T08:10:30.447Z,9.96
2023-03-10T08:13:07.248Z,10.25
2023-03-10T08:15:37.792Z,10.23
2023-03-10T08:18:11.137Z,10.26
2023-03-10T08:20:47.628Z,10.36
2023-03-10T08:23:32.432Z,10.61
2023-03-10T08:26:11.851Z,10.53
2023-03-10T08:28:42.202Z,10.49
2023-03-10T08:31:13.532Z,10.57
2023-03-10T08:33:44.129Z,10.72
2023-03-10T08:36:21.505Z,10.88
2023-03-10T08:38:56.855Z,10.92
2023-03-10T08:41:37.270Z,11.01
2023-03-10T08:44:08.021Z,11.12
2023-03-10T08:46:39.324Z,11.25
2023-03-10T08:49:19.523Z,11.38
2023-03-10T08:51:49.867Z,11.33
2023-03-10T08:54:22.872Z,11.57
2023-03-10T08:56:54.198Z,11.56
2023-03-10T08:59:29.185Z,11.70
2023-03-10T09:02:01.892Z,11.84
2023-03-10T09:04:31.559Z,11.77
2023-03-10T09:07:00.214Z,11.85
2023-03-10T09:09:35.696Z,11.92
2023-03-10T09:12:09.001Z,12.14
2023-03-10T09:14:42.172Z,12.17
2023-03-10T09:17:24.856Z,12.29
2023-03-10T09:19:55.657Z,12.23
2023-03-10T09:22:27.744Z,12.25
2023-03-10T09:25:04.517Z,12.43
2023-03-10T09:27:41.713Z,12.44
2023-03-10T09:30:14.158Z,12.67
2023-03-10T09:32:44.980Z,12.93
2023-03-10T09:35:18.035Z,12.68
2023-03-10T09:37:49.774Z,12.95
2023-03-10T09:40:25.515Z,12.97
2023-03-10T09:43:08.472Z,13.16
2023-03-10T09:45:41.713Z,13.37
2023-03-10T09:48:27.884Z,13.44
2023-03-10T09:51:04.528Z,13.28
2023-03-10T09:53:49.786Z,13.45
2023-03-10T09:56:29.727Z,13.31
2023-03-10T09:59:13.579Z,13.46
2023-03-10T10:01:48.085Z,13.63
2023-03-10T10:04:29.527Z,13.34
2023-03-10T10:07:16.727Z,13.45
2023-03-10T10:09:48.509Z,13.67
2023-03-10T10:12:26.369Z,13.71
2023-03-10T10:15:03.808Z,13.71
2023-03-10T10:17:56.397Z,13.64
2023-03-10T10:20:36.728Z,13.93
2023-03-10T10:23:16.481Z,14.07
2023-03-10T10:25:50.296Z,14.10
2023-03-10T10:28:37.409Z,14.34
2023-03-10T10:31:18.720Z,14.32
2023-03-10T10:34:20.086Z,14.25
2023-03-10T10:36:57.781Z,14.39
2023-03-10T10:39:31.570Z,14.48
2023-03-10T10:42:18.342Z,14.25
2023-03-10T10:44:54.797Z,14.48
2023-03-10T10:47:32.539Z,14.37
2023-03-10T10:50:29.437Z,14.51
2023-03-10T10:53:36.715Z,14.24
2023-03-10T10:56:08.797Z,14.79
2023-03-10T10:58:42.185Z,14.87
2023-03-10T11:01:21.308Z,14.68
2023-03-10T11:04:05.667Z,14.74
2023-03-10T11:06:38.307Z,14.58
2023-03-10T11:09:09.125Z,15.10
2023-03-10T11:11:48.212Z,15.34
2023-03-10T11:14:39.996Z,15.58
2023-03-10T11:17:26.533Z,15.72
2023-03-10T11:20:10.105Z,15.81
2023-03-10T11:22:43.583Z,15.80
2023-03-10T11:25:41.095Z,15.90
2023-03-10T11:28:38.122Z,15.81
2023-03-10T11:31:27.836Z,16.08
2023-03-10T11:34:13.095Z,16.05
2023-03-10T11:36:55.962Z,16.30
2023-03-10T11:39:33.877Z,16.05
2023-03-10T11:42:16.021Z,16.01
2023-03-10T11:44:54.175Z,16.30
2023-03-10T11:47:39.607Z,16.51
2023-03-10T11:50:27.005Z,16.67
2023-03-10T11:53:08.391Z,16.53
2023-03-10T11:55:38.678Z,16.33
2023-03-10T11:58:18.562Z,16.02
2023-03-10T12:00:56.684Z,16.00
2023-03-10T12:03:40.673Z,16.10
2023-03-10T12:06:16.230Z,16.18
2023-03-10T12:08:55.831Z,16.25
2023-03-10T12:11:31.806Z,16.29
2023-03-10T12:14:02.258Z,16.44
2023-03-10T12:16:33.954Z,16.33
2023-03-10T12:19:05.641Z,16.62
2023-03-10T12:21:36.128Z,16.58
2023-03-10T12:24:06.419Z,16.74
2023-03-10T12:27:05.761Z,16.77
2023-03-10T12:29:40.910Z,16.72
2023-03-10T12:32:43.672Z,16.46
2023-03-10T12:35:50.816Z,16.59
2023-03-10T12:38:46.518Z,16.74
2023-03-10T12:41:47.229Z,17.05
2023-03-10T12:44:44.469Z,17.12
2023-03-10T12:47:39.625Z,16.92
2023-03-10T12:50:24.128Z,17.27
2023-03-10T12:52:59.856Z,17.02
2023-03-10T12:55:37.264Z,17.09
2023-03-10T12:58:22.810Z,16.58
2023-03-10T13:00:55.326Z,16.63
2023-03-10T13:03:43.933Z,16.69
2023-03-10T13:06:23.641Z,16.75
2023-03-10T13:08:55.896Z,16.83
2023-03-10T13:11:34.869Z,16.99
2023-03-10T13:14:07.026Z,17.23
2023-03-10T13:16:38.068Z,17.29
2023-03-10T13:19:15.608Z,17.44
2023-03-10T13:21:53.204Z,17.54
2023-03-10T13:24:27.704Z,17.45
2023-03-10T13:27:11.610Z,17.28
2023-03-10T13:29:47.653Z,17.18
2023-03-10T13:32:29.408Z,17.14
2023-03-10T13:35:00.444Z,16.95
2023-03-10T13:37:32.302Z,16.67
2023-03-10T13:40:13.596Z,16.73
2023-03-10T13:42:44.811Z,17.05
2023-03-10T13:45:24.528Z,16.71
2023-03-10T13:47:55.279Z,16.74
2023-03-10T13:50:28.863Z,16.88
2023-03-10T13:53:00.249Z,16.75
2023-03-10T13:55:33.372Z,16.81
2023-03-10T13:58:09.666Z,16.78
2023-03-10T14:00:47.408Z,16.35
2023-03-10T14:03:18.398Z,16.28
2023-03-10T14:05:50.323Z,16.26
2023-03-10T14:08:22.812Z,16.19
2023-03-10T14:10:55.092Z,16.32
2023-03-10T14:13:44.805Z,16.40
2023-03-10T14:16:20.624Z,16.24
2023-03-10T14:18:51.762Z,16.52
2023-03-10T14:21:58.550Z,16.46
2023-03-10T14:24:30.927Z,16.24
2023-03-10T14:27:01.862Z,16.34
2023-03-10T14:29:32.787Z,16.43
2023-03-10T14:32:06.812Z,16.42
2023-03-10T14:34:37.735Z,16.55
2023-03-10T14:37:09.374Z,16.30
2023-03-10T14:39:37.999Z,16.01
2023-03-10T14:42:15.481Z,15.89
2023-03-10T14:44:55.391Z,16.12
2023-03-10T14:47:27.149Z,16.00
2023-03-10T14:50:03.880Z,15.93
2023-03-10T14:52:32.749Z,15.93
2023-03-10T14:55:04.477Z,15.91
2023-03-10T14:57:36.663Z,15.82
2023-03-10T15:00:15.666Z,15.75
2023-03-10T15:02:44.792Z,15.68
2023-03-10T15:05:18.719Z,15.64
2023-03-10T15:08:01.268Z,15.61
2023-03-10T15:10:35.666Z,15.58
2023-03-10T15:13:05.058Z,15.55
2023-03-10T15:15:43.804Z,15.59
2023-03-10T15:18:24.237Z,15.57
2023-03-10T15:20:55.388Z,15.56
2023-03-10T15:23:31.909Z,15.58
2023-03-10T15:26:12.165Z,15.58
2023-03-10T15:28:44.944Z,15.61
2023-03-10T15:31:28.413Z,15.76
2023-03-10T15:34:02.676Z,15.93
2023-03-10T15:36:32.418Z,15.97
2023-03-10T15:39:00.933Z,15.80
2023-03-10T15:41:45.625Z,16.03
2023-03-10T15:44:17.404Z,15.96
2023-03-10T15:46:53.341Z,15.90
2023-03-10T15:49:26.025Z,15.94
2023-03-10T15:52:03.106Z,16.08
2023-03-10T15:54:46.046Z,15.93
2023-03-10T15:57:15.466Z,15.89
2023-03-10T15:59:54.219Z,15.93
2023-03-10T16:02:26.992Z,15.70
2023-03-10T16:04:58.167Z,15.87
2023-03-10T16:07:30.504Z,15.90
2023-03-10T16:09:59.930Z,15.68
2023-03-10T16:12:36.272Z,15.62
2023-03-10T16:15:09.375Z,15.61
2023-03-10T16:17:43.930Z,15.43
2023-03-10T16:20:21.814Z,15.44
2023-03-10T16:22:53.674Z,15.62
2023-03-10T16:25:26.957Z,15.34
2023-03-10T16:28:04.593Z,15.40
2023-03-10T16:30:42.474Z,15.21
2023-03-10T16:33:17.152Z,15.01
2023-03-10T16:35:47.802Z,14.72
2023-03-10T16:41:03.913Z,14.62
2023-03-10T16:43:47.524Z,14.53
2023-03-10T16:46:22.739Z,14.44
2023-03-10T16:49:07.734Z,14.37
2023-03-10T16:51:40.041Z,14.39
2023-03-10T16:54:11.313Z,14.45
2023-03-10T16:56:49.503Z,14.34
2023-03-10T16:59:25.367Z,14.25
2023-03-10T17:01:56.203Z,14.19
2023-03-10T17:04:36.206Z,14.14
2023-03-10T17:07:11.820Z,14.18
2023-03-10T17:09:48.363Z,14.20
2023-03-10T17:12:24.241Z,13.98
2023-03-10T17:14:57.844Z,13.95
2023-03-10T17:17:30.239Z,13.94
2023-03-10T17:20:16.661Z,13.99
2023-03-10T17:22:48.411Z,14.01
2023-03-10T17:25:24.192Z,13.75
2023-03-10T17:27:53.997Z,13.73
2023-03-10T17:30:29.347Z,13.65
2023-03-10T17:33:10.533Z,13.70
2023-03-10T17:35:59.455Z,13.61
2023-03-10T17:38:31.333Z,13.67
2023-03-10T17:41:04.802Z,13.45
2023-03-10T17:43:45.641Z,13.40
2023-03-10T17:46:29.651Z,13.47
2023-03-10T17:49:07.965Z,13.58
2023-03-10T17:51:47.451Z,13.44
2023-03-10T17:54:24.561Z,13.45
2023-03-10T17:56:53.839Z,13.45
2023-03-10T17:59:39.513Z,13.36
2023-03-10T18:02:26.551Z,13.35
2023-03-10T18:05:08.989Z,13.25
2023-03-10T18:07:55.290Z,13.29
2023-03-10T18:10:25.193Z,13.14
2023-03-10T18:12:55.974Z,13.06
2023-03-10T18:15:25.643Z,13.28
2023-03-10T18:18:19.735Z,13.31
2023-03-10T18:21:07.532Z,13.36
2023-03-10T18:23:43.908Z,13.42
2023-03-10T18:26:24.310Z,13.29
2023-03-10T18:29:09.251Z,13.28
2023-03-10T18:32:04.616Z,13.26
2023-03-10T18:34:39.149Z,13.31
2023-03-10T18:37:09.278Z,13.40
2023-03-10T18:40:01.745Z,13.23
2023-03-10T18:42:48.009Z,13.46
2023-03-10T18:45:31.680Z,13.33
2023-03-10T18:48:04.683Z,13.18
2023-03-10T18:50:43.181Z,13.09
2023-03-10T18:53:24.095Z,13.14
2023-03-10T18:56:08.593Z,13.11
2023-03-10T18:58:39.993Z,13.02
2023-03-10T19:01:20.564Z,13.00
2023-03-10T19:03:55.331Z,12.92
2023-03-10T19:06:35.852Z,12.95
2023-03-10T19:09:10.039Z,12.93
2023-03-10T19:11:44.024Z,12.93
2023-03-10T19:14:17.157Z,12.88
2023-03-10T19:16:50.350Z,12.89
2023-03-10T19:19:34.177Z,12.95
2023-03-10T19:22:24.388Z,12.84
2023-03-10T19:24:55.484Z,12.83
2023-03-10T19:27:43.410Z,12.85
2023-03-10T19:30:28.068Z,12.78
2023-03-10T19:32:58.797Z,12.77
2023-03-10T19:35:30.161Z,12.85
2023-03-10T19:38:00.921Z,12.89
2023-03-10T19:40:32.369Z,12.85
2023-03-10T19:46:12.725Z,12.48
2023-03-10T19:48:51.295Z,12.31
2023-03-10T19:51:24.895Z,12.26
2023-03-10T19:54:04.372Z,12.10
2023-03-10T19:56:37.084Z,12.11
2023-03-10T19:59:25.726Z,12.13
2023-03-10T20:02:03.046Z,11.87
2023-03-10T20:04:34.809Z,11.90
2023-03-10T20:07:07.547Z,11.80
2023-03-10T20:09:38.500Z,11.78
2023-03-10T20:12:20.666Z,11.81
2023-03-10T20:14:59.180Z,11.78
2023-03-10T20:17:39.214Z,11.83
2023-03-10T20:20:20.771Z,11.72
2023-03-10T20:23:01.954Z,11.62
2023-03-10T20:25:41.319Z,11.65
2023-03-10T20:28:21.645Z,11.56
2023-03-10T20:31:12.167Z,11.64
2023-03-10T20:33:58.861Z,11.64
2023-03-10T20:36:34.355Z,11.43
2023-03-10T20:39:06.694Z,11.48
2023-03-10T20:41:45.056Z,11.42
2023-03-10T20:44:28.833Z,11.49
2023-03-10T20:47:14.372Z,11.31
2023-03-10T20:49:48.571Z,11.36
2023-03-10T20:52:26.449Z,11.23
2023-03-10T20:54:59.568Z,11.30
2023-03-10T20:57:29.793Z,11.38
2023-03-10T21:00:07.143Z,11.42
2023-03-10T21:02:45.608Z,11.30
2023-03-10T21:05:20.053Z,11.46
2023-03-10T21:07:50.173Z,11.30
2023-03-10T21:10:28.083Z,11.44
2023-03-10T21:13:13.691Z,11.41
2023-03-10T21:15:45.470Z,11.41
2023-03-10T21:18:22.759Z,11.46
2023-03-10T21:21:06.033Z,11.37
2023-03-10T21:23:53.634Z,11.50
2023-03-10T21:26:24.083Z,11.38
2023-03-10T21:28:54.194Z,11.20
2023-03-10T21:31:24.966Z,11.27
2023-03-10T21:34:09.939Z,11.20
2023-03-10T21:36:40.678Z,11.26
2023-03-10T21:39:19.391Z,11.01
2023-03-10T21:41:50.560Z,11.12
2023-03-10T21:44:23.778Z,10.95
2023-03-10T21:47:05.869Z,11.00
2023-03-10T21:49:55.780Z,11.04
2023-03-10T21:52:30.688Z,10.90
2023-03-10T21:55:02.906Z,11.08
2023-03-10T21:57:35.865Z,10.97
2023-03-10T22:00:09.454Z,10.93
2023-03-10T22:02:41.353Z,10.99
2023-03-10T22:05:22.787Z,10.98
2023-03-10T22:07:55.902Z,10.96
2023-03-10T22:10:25.376Z,10.82
2023-03-10T22:12:54.239Z,10.89
2023-03-10T22:15:33.197Z,10.96
2023-03-10T22:18:02.501Z,10.87
2023-03-10T22:20:49.304Z,10.84
2023-03-10T22:23:20.858Z,10.86
2023-03-10T22:26:00.757Z,10.77
2023-03-10T22:28:30.864Z,10.84
2023-03-10T22:31:02.113Z,10.70
2023-03-10T22:33:39.821Z,10.77
2023-03-10T22:36:15.880Z,10.64
2023-03-10T22:38:46.975Z,10.78
2023-03-10T22:41:20.921Z,10.77
2023-03-10T22:43:51.641Z,10.73
2023-03-10T22:46:20.348Z,10.98
2023-03-10T22:48:50.241Z,10.79
2023-03-10T22:51:34.873Z,10.76
2023-03-10T22:54:07.610Z,10.83
2023-03-10T22:56:38.911Z,11.15
2023-03-10T22:59:12.846Z,10.98
2023-03-10T23:01:44.263Z,10.92
2023-03-10T23:04:16.968Z,10.75
2023-03-10T23:06:49.692Z,10.72
2023-03-10T23:09:21.276Z,10.60
2023-03-10T23:11:52.974Z,10.51
2023-03-10T23:14:22.257Z,10.54
2023-03-10T23:16:53.620Z,10.43
2023-03-10T23:19:23.270Z,10.53
2023-03-10T23:22:01.239Z,10.55
2023-03-10T23:24:33.289Z,10.63
2023-03-10T23:27:04.732Z,10.77
2023-03-10T23:29:36.742Z,10.59
2023-03-10T23:32:06.112Z,10.52
2023-03-10T23:34:40.210Z,10.69
2023-03-10T23:37:23.851Z,10.49
2023-03-10T23:39:55.770Z,10.45
2023-03-10T23:42:24.402Z,10.51
2023-03-10T23:44:57.081Z,10.71
2023-03-10T23:47:26.374Z,10.46
2023-03-10T23:50:06.763Z,10.47
2023-03-10T23:52:39.244Z,10.59
2023-03-10T23:55:09.638Z,10.47
2023-03-10T23:57:38.761Z,10.55
